Time;durP1;ratioP1;P1;durP2;ratioP2;P2;SDS_P1;SDS_P2;PMS_P1;PMS_P2;Temp;Humidity;BMP_temperature;BMP_pressure;BME280_temperature;BME280_humidity;BME280_pressure;Samples;Min_cycle;Max_cycle;Signal;HPM_P1;HPM_P2
2022/01/23 00:00:51;;;;;;;13.13;8.50;;;;;;;-2.26;53.43;95320.56;5041017;28;20029;-80
2022/01/23 00:03:18;;;;;;;16.08;9.60;;;;;;;-2.17;52.89;95313.81;5019250;28;20095;-79
2022/01/23 00:05:48;;;;;;;12.73;8.20;;;;;;;-2.10;52.91;95314.06;5037159;28;20028;-80
2022/01/23 00:08:16;;;;;;;15.18;7.40;;;;;;;-2.09;53.12;95325.88;5037025;28;20435;-79
2022/01/23 00:10:41;;;;;;;16.23;10.45;;;;;;;-2.05;53.10;95343.25;5038322;28;20029;-79
2022/01/23 00:13:24;;;;;;;14.68;8.30;;;;;;;-1.99;52.97;95327.41;5005279;28;20029;-79
2022/01/23 00:18:34;;;;;;;21.77;11.55;;;;;;;-1.85;53.00;95334.56;5040049;28;20055;-79
2022/01/23 00:20:59;;;;;;;17.70;10.20;;;;;;;-1.75;52.64;95328.63;5020108;28;20037;-80
2022/01/23 00:31:22;;;;;;;22.38;11.93;;;;;;;-1.72;53.44;95333.44;5044251;28;20044;-80
2022/01/23 00:33:48;;;;;;;20.98;11.00;;;;;;;-1.68;52.81;95344.94;5025329;28;20036;-80
2022/01/23 00:36:13;;;;;;;28.02;12.75;;;;;;;-1.68;52.72;95344.94;5009889;28;20443;-80
2022/01/23 00:38:39;;;;;;;27.77;11.73;;;;;;;-1.70;53.67;95349.38;5044779;28;20051;-80
2022/01/23 00:41:05;;;;;;;50.70;20.08;;;;;;;-1.61;53.03;95346.00;5010226;28;20472;-80
2022/01/23 00:43:33;;;;;;;18.45;11.65;;;;;;;-1.57;52.89;95344.75;5025804;28;20030;-80
2022/01/23 00:49:02;;;;;;;16.50;9.65;;;;;;;-1.49;53.08;95349.91;5014731;28;20532;-80
2022/01/23 00:51:29;;;;;;;16.17;9.45;;;;;;;-1.53;52.94;95344.31;5019519;28;20477;-79
2022/01/23 00:53:57;;;;;;;21.35;12.30;;;;;;;-1.53;53.10;95340.97;5043212;28;20037;-79
2022/01/23 00:56:26;;;;;;;32.80;16.27;;;;;;;-1.47;53.09;95342.91;5034641;28;20035;-80
2022/01/23 00:58:51;;;;;;;21.33;9.57;;;;;;;-1.43;52.81;95344.25;5026313;28;20106;-80
2022/01/23 01:01:19;;;;;;;16.95;9.32;;;;;;;-1.48;53.18;95345.63;5010123;28;20562;-82
2022/01/23 01:03:47;;;;;;;22.40;12.98;;;;;;;-1.48;52.96;95346.41;5010624;28;20029;-82
2022/01/23 01:06:13;;;;;;;17.20;10.15;;;;;;;-1.30;52.88;95349.00;5051117;28;20044;-81
2022/01/23 01:08:39;;;;;;;20.35;9.40;;;;;;;-1.26;52.39;95335.81;5011233;28;20033;-81
2022/01/23 01:13:55;;;;;;;13.18;8.75;;;;;;;-1.28;52.37;95332.59;5026463;28;20116;-81
2022/01/23 01:30:26;;;;;;;9.43;6.20;;;;;;;-2.01;54.71;95347.13;5029568;28;20059;-80
2022/01/23 01:35:44;;;;;;;7.63;6.40;;;;;;;-1.96;54.90;95356.88;5044560;28;20056;-81
2022/01/23 01:38:09;;;;;;;7.43;5.22;;;;;;;-1.90;55.03;95353.78;5042044;28;20060;-81
2022/01/23 01:40:36;;;;;;;8.70;6.88;;;;;;;-1.92;54.46;95353.13;5034160;28;20059;-81
2022/01/23 01:43:01;;;;;;;16.02;8.32;;;;;;;-1.92;54.62;95351.38;5016938;28;20029;-81
2022/01/23 01:45:28;;;;;;;10.27;7.68;;;;;;;-1.93;55.07;95354.09;5050159;28;20095;-81
2022/01/23 01:47:55;;;;;;;13.07;7.63;;;;;;;-1.87;54.90;95346.66;5010079;28;20037;-81
2022/01/23 01:50:21;;;;;;;12.65;6.78;;;;;;;-1.86;54.50;95352.56;5025888;28;20483;-81
2022/01/23 01:52:47;;;;;;;11.43;7.50;;;;;;;-1.89;54.43;95351.09;5023416;28;20057;-81
2022/01/23 01:55:17;;;;;;;16.58;8.20;;;;;;;-1.89;54.82;95346.00;4993449;28;20082;-80
2022/01/23 01:57:51;;;;;;;13.93;8.20;;;;;;;-1.86;54.49;95348.25;5033333;28;20120;-81
2022/01/23 02:08:26;;;;;;;9.75;6.93;;;;;;;-1.81;54.03;95340.97;5027361;28;20040;-80
2022/01/23 02:10:57;;;;;;;14.82;7.75;;;;;;;-1.81;54.15;95351.19;5032382;28;20528;-80
2022/01/23 02:24:06;;;;;;;17.63;9.65;;;;;;;-2.22;54.94;95354.19;5003553;28;20129;-80
2022/01/23 02:54:39;;;;;;;14.68;11.13;;;;;;;-2.44;54.20;95379.06;4985911;28;20580;-81
2022/01/23 02:56:53;;;;;;;16.83;9.43;;;;;;;-2.48;54.41;95366.75;4987050;28;20050;-80
2022/01/23 02:59:30;;;;;;;11.07;7.70;;;;;;;-2.46;53.95;95378.38;4986401;28;20121;-80
2022/01/23 03:04:41;;;;;;;12.88;7.18;;;;;;;-2.47;54.00;95381.88;5006757;28;20112;-80
2022/01/23 03:09:59;;;;;;;15.93;9.00;;;;;;;-2.48;53.88;95377.72;5005029;28;20057;-79
2022/01/23 03:28:27;;;;;;;21.92;13.38;;;;;;;-2.80;54.29;95387.44;5006105;28;20069;-80
2022/01/23 03:31:21;;;;;;;25.80;13.15;;;;;;;-2.73;54.90;95391.06;5007725;28;20052;-79
2022/01/23 03:33:46;;;;;;;24.95;12.27;;;;;;;-2.78;54.26;95386.34;4989721;28;20507;-80
2022/01/23 03:36:12;;;;;;;26.30;13.02;;;;;;;-2.69;54.67;95400.03;5008855;22;20104;-80
2022/01/23 03:38:37;;;;;;;17.02;10.93;;;;;;;-2.70;54.43;95397.63;5067012;28;20041;-80
2022/01/23 03:41:03;;;;;;;18.83;9.95;;;;;;;-2.62;54.24;95395.97;5025529;23;20037;-80
2022/01/23 03:43:32;;;;;;;20.20;11.32;;;;;;;-2.76;54.14;95389.59;5035593;28;20120;-80
2022/01/23 03:51:47;;;;;;;15.82;10.32;;;;;;;-2.57;53.25;95390.50;4923661;29;20425;-80
2022/01/23 03:54:13;;;;;;;20.58;10.70;;;;;;;-2.55;53.73;95391.97;4981722;28;20048;-80
2022/01/23 03:56:38;;;;;;;21.83;10.20;;;;;;;-2.52;53.85;95401.88;5017636;28;20159;-80
2022/01/23 03:59:04;;;;;;;18.17;9.75;;;;;;;-2.58;53.90;95394.78;5017722;28;20033;-80
2022/01/23 04:01:29;;;;;;;15.07;8.98;;;;;;;-2.52;53.28;95401.06;5002340;28;20037;-80
2022/01/23 04:03:59;;;;;;;15.68;9.10;;;;;;;-2.46;53.06;95406.41;5018465;28;20048;-80
2022/01/23 04:06:24;;;;;;;24.58;11.38;;;;;;;-2.48;53.09;95403.19;5018195;28;20048;-80
2022/01/23 04:08:50;;;;;;;17.00;11.55;;;;;;;-2.36;52.93;95413.22;5017401;28;20042;-80
2022/01/23 04:11:16;;;;;;;22.48;11.35;;;;;;;-2.39;53.11;95410.97;5034790;28;20033;-80
2022/01/23 04:13:54;;;;;;;19.42;10.43;;;;;;;-2.32;52.41;95412.00;5027411;22;20102;-79
2022/01/23 04:45:32;;;;;;;13.93;8.55;;;;;;;-2.14;51.90;95426.44;5062761;28;20067;-80
2022/01/23 05:04:30;;;;;;;10.82;7.60;;;;;;;-2.01;50.70;95436.31;5047761;28;20041;-80
2022/01/23 05:07:10;;;;;;;14.43;8.32;;;;;;;-1.98;50.25;95438.59;5054112;28;20033;-80
2022/01/23 05:09:36;;;;;;;9.80;7.43;;;;;;;-1.94;50.05;95441.69;5054786;28;20082;-80
2022/01/23 05:12:03;;;;;;;12.13;7.15;;;;;;;-2.02;49.88;95439.81;5036365;28;20397;-79
2022/01/23 05:14:49;;;;;;;16.17;8.90;;;;;;;-1.92;50.07;95445.69;5035406;28;20044;-80
2022/01/23 05:17:15;;;;;;;17.80;9.85;;;;;;;-1.93;49.78;95446.63;5021473;28;20435;-80
2022/01/23 05:19:43;;;;;;;23.95;13.48;;;;;;;-1.86;49.76;95450.22;5051418;28;20120;-80
2022/01/23 05:25:09;;;;;;;17.65;10.43;;;;;;;-1.89;48.98;95444.59;5052759;28;20064;-80
2022/01/23 05:27:34;;;;;;;15.05;8.73;;;;;;;-1.92;49.38;95453.34;5023675;28;20036;-80
2022/01/23 05:30:00;;;;;;;16.02;10.52;;;;;;;-1.89;49.43;95460.69;5035538;28;20040;-80
2022/01/23 05:32:28;;;;;;;12.43;9.48;;;;;;;-1.93;49.33;95450.94;5035355;28;20051;-80
2022/01/23 05:34:55;;;;;;;15.27;9.52;;;;;;;-1.92;49.10;95450.78;5035344;28;20468;-80
2022/01/23 05:37:20;;;;;;;20.45;12.05;;;;;;;-1.91;49.16;95465.13;5018963;28;20508;-80
2022/01/23 05:39:46;;;;;;;23.38;12.85;;;;;;;-1.93;48.78;95456.03;5018116;28;20040;-80
2022/01/23 05:42:11;;;;;;;23.85;13.05;;;;;;;-1.97;49.30;95463.13;5035257;28;20029;-81
2022/01/23 05:44:38;;;;;;;32.28;17.13;;;;;;;-2.05;49.65;95457.13;5019051;28;20043;-79
2022/01/23 05:47:04;;;;;;;32.90;15.75;;;;;;;-2.02;48.78;95465.28;5018773;28;20040;-80
2022/01/23 05:49:30;;;;;;;46.88;19.60;;;;;;;-2.01;49.02;95472.00;5019044;28;20029;-80
2022/01/23 05:51:58;;;;;;;42.67;20.77;;;;;;;-2.10;49.10;95462.66;5036577;28;20040;-80
2022/01/23 05:54:23;;;;;;;41.60;20.52;;;;;;;-2.09;49.53;95471.91;5036019;28;20524;-80
2022/01/23 05:56:51;;;;;;;38.20;18.52;;;;;;;-2.11;49.26;95471.22;5037180;28;20488;-80
2022/01/23 05:59:16;;;;;;;27.63;17.15;;;;;;;-2.12;49.20;95465.34;5048651;28;20036;-79
2022/01/23 06:01:43;;;;;;;66.70;27.95;;;;;;;-2.13;49.66;95463.69;5049144;28;20029;-79
2022/01/23 06:04:09;;;;;;;56.28;27.40;;;;;;;-2.08;49.12;95470.16;5061158;28;20055;-81
2022/01/23 06:06:34;;;;;;;44.97;24.88;;;;;;;-2.05;49.00;95470.66;5018548;28;20080;-81
2022/01/23 06:08:59;;;;;;;48.75;28.35;;;;;;;-2.03;48.94;95478.97;5021321;28;20037;-80
2022/01/23 06:11:25;;;;;;;54.08;30.42;;;;;;;-2.01;49.09;95474.53;5035744;28;20033;-80
2022/01/23 06:13:50;;;;;;;58.63;29.67;;;;;;;-2.01;48.43;95479.63;5018563;28;20041;-80
2022/01/23 06:16:16;;;;;;;57.05;27.30;;;;;;;-2.07;48.73;95472.56;5034272;28;20041;-79
2022/01/23 06:18:43;;;;;;;90.43;40.53;;;;;;;-2.01;48.78;95484.72;5027532;28;20500;-79
2022/01/23 06:21:09;;;;;;;146.38;58.80;;;;;;;-2.02;48.70;95479.78;5001566;28;20021;-80
2022/01/23 06:23:35;;;;;;;84.18;40.78;;;;;;;-1.95;48.31;95485.94;5033611;28;20029;-80
2022/01/23 06:26:00;;;;;;;58.90;27.58;;;;;;;-1.91;48.66;95487.28;5034489;28;20457;-78
2022/01/23 06:28:52;;;;;;;76.28;31.45;;;;;;;-1.86;48.85;95488.44;5051337;28;20037;-79
2022/01/23 06:31:18;;;;;;;56.60;25.75;;;;;;;-1.81;48.37;95493.94;5036921;28;20041;-77
2022/01/23 06:33:43;;;;;;;49.97;22.02;;;;;;;-1.58;47.88;95486.75;5024474;28;20032;-79
2022/01/23 06:36:09;;;;;;;47.70;24.90;;;;;;;-1.03;47.15;95488.47;5045325;28;20048;-78
2022/01/23 06:38:35;;;;;;;29.08;14.77;;;;;;;-0.73;46.28;95485.59;5065184;28;20044;-80
2022/01/23 06:41:01;;;;;;;29.58;13.90;;;;;;;-0.62;46.04;95485.38;5048414;28;20055;-80
2022/01/23 06:43:27;;;;;;;32.78;17.42;;;;;;;-0.42;45.69;95477.56;5044693;28;20033;-82
2022/01/23 06:45:52;;;;;;;37.03;17.48;;;;;;;-0.22;45.20;95478.97;5015159;28;20055;-81
2022/01/23 06:48:18;;;;;;;27.33;15.52;;;;;;;0.07;44.53;95483.00;5022244;28;20045;-82
2022/01/23 06:50:43;;;;;;;32.17;19.50;;;;;;;0.21;43.54;95475.59;5039156;28;20048;-81
2022/01/23 06:53:09;;;;;;;34.08;21.70;;;;;;;0.15;43.62;95481.28;5039603;28;20420;-81
2022/01/23 06:55:37;;;;;;;38.53;22.38;;;;;;;0.20;43.76;95473.19;5039503;28;20036;-81
2022/01/23 06:58:03;;;;;;;32.05;17.50;;;;;;;0.24;43.84;95477.03;5022910;28;20040;-81
2022/01/23 07:00:28;;;;;;;26.58;17.25;;;;;;;0.27;43.25;95476.72;5036991;28;20481;-78
2022/01/23 07:02:54;;;;;;;31.20;16.42;;;;;;;0.37;43.71;95474.88;5036858;28;20045;-78
2022/01/23 07:05:19;;;;;;;31.35;17.83;;;;;;;0.36;43.96;95472.47;5037402;28;20051;-79
2022/01/23 07:07:50;;;;;;;27.02;15.77;;;;;;;0.37;44.94;95479.97;5020321;28;20447;-83
2022/01/23 07:10:18;;;;;;;28.70;16.50;;;;;;;0.31;44.61;95470.34;5020983;28;20041;-79
2022/01/23 07:12:43;;;;;;;63.30;25.98;;;;;;;0.32;45.58;95473.69;5038706;28;20041;-79
2022/01/23 07:15:11;;;;;;;54.40;24.30;;;;;;;0.43;44.85;95474.25;5054211;28;20040;-79
2022/01/23 07:17:43;;;;;;;33.00;20.73;;;;;;;0.54;46.32;95476.53;5005580;28;20036;-79
2022/01/23 07:20:09;;;;;;;23.33;13.73;;;;;;;0.51;45.57;95476.06;5040717;28;20049;-79
2022/01/23 07:22:35;;;;;;;29.25;16.10;;;;;;;0.44;48.37;95468.19;5035576;28;20291;-78
2022/01/23 07:25:02;;;;;;;23.85;14.13;;;;;;;0.32;47.65;95471.94;5024047;28;20064;-79
2022/01/23 07:27:32;;;;;;;27.48;14.77;;;;;;;0.22;48.46;95469.50;5042382;28;20040;-78
2022/01/23 07:29:57;;;;;;;23.58;13.77;;;;;;;0.07;48.99;95465.91;5063125;28;20091;-79
2022/01/23 07:32:23;;;;;;;26.40;14.63;;;;;;;-0.10;47.87;95465.00;5041676;28;20045;-79
2022/01/23 07:34:48;;;;;;;25.55;14.23;;;;;;;-0.40;49.68;95473.91;5037496;28;20037;-78
2022/01/23 07:37:15;;;;;;;20.00;12.00;;;;;;;-0.58;50.29;95465.44;5019820;28;20033;-78
2022/01/23 07:39:40;;;;;;;17.20;11.77;;;;;;;-0.73;51.66;95477.94;5081659;22;20037;-78
2022/01/23 07:42:06;;;;;;;24.20;15.93;;;;;;;-0.84;49.65;95478.13;5044117;28;20068;-79
2022/01/23 07:44:31;;;;;;;24.00;14.70;;;;;;;-1.00;49.83;95472.88;5044303;28;20041;-78
2022/01/23 07:46:57;;;;;;;24.00;15.73;;;;;;;-1.00;51.73;95473.66;5045280;28;20497;-78
2022/01/23 07:49:23;;;;;;;21.63;14.43;;;;;;;-0.94;51.42;95482.53;5010203;28;20068;-79
2022/01/23 07:51:48;;;;;;;18.27;10.70;;;;;;;-0.97;50.67;95498.13;5034620;28;20040;-79
2022/01/23 07:54:13;;;;;;;17.20;11.05;;;;;;;-0.96;51.47;95490.31;5010977;28;20038;-78
2022/01/23 07:56:42;;;;;;;25.42;13.68;;;;;;;-0.88;52.45;95494.69;5025707;28;20029;-78
2022/01/23 07:59:10;;;;;;;16.02;10.40;;;;;;;-0.80;51.06;95494.00;5044048;28;20041;-78
2022/01/23 08:01:39;;;;;;;12.23;9.60;;;;;;;-0.72;50.97;95491.50;5033673;28;20520;-78
2022/01/23 08:04:06;;;;;;;13.38;9.18;;;;;;;-0.73;47.90;95495.81;5008782;28;20044;-78
2022/01/23 08:06:33;;;;;;;16.90;9.32;;;;;;;-0.70;48.19;95490.41;5027546;28;20052;-77
2022/01/23 08:08:59;;;;;;;20.52;11.52;;;;;;;-0.78;47.93;95471.66;5018584;22;20041;-78
2022/01/23 08:11:24;;;;;;;29.85;14.65;;;;;;;-0.58;47.94;95497.84;5063772;28;20569;-79
2022/01/23 08:13:50;;;;;;;19.42;12.50;;;;;;;-0.59;47.42;95494.50;5062752;28;20028;-78
2022/01/23 08:16:15;;;;;;;26.80;15.98;;;;;;;-0.57;47.51;95499.47;5013128;28;20033;-78
2022/01/23 08:18:41;;;;;;;19.75;11.60;;;;;;;-0.65;47.34;95487.44;5037080;28;20036;-78
2022/01/23 08:21:07;;;;;;;19.17;10.98;;;;;;;-0.84;47.56;95493.44;5046283;28;20162;-78
2022/01/23 08:23:33;;;;;;;35.15;14.10;;;;;;;-0.75;47.70;95502.81;5043111;28;20098;-77
2022/01/23 08:25:59;;;;;;;29.70;15.35;;;;;;;-0.73;47.05;95495.00;5043442;28;20033;-78
2022/01/23 08:28:24;;;;;;;32.78;13.35;;;;;;;-0.80;46.89;95489.69;5026275;28;20161;-78
2022/01/23 08:30:50;;;;;;;21.90;11.52;;;;;;;-0.91;47.21;95492.44;5010713;28;20037;-78
2022/01/23 08:33:15;;;;;;;32.03;14.95;;;;;;;-0.90;47.20;95504.25;5032220;28;20033;-78
2022/01/23 08:35:43;;;;;;;15.38;9.88;;;;;;;-0.87;46.86;95491.19;5043139;28;20037;-78
2022/01/23 08:38:22;;;;;;;13.63;8.98;;;;;;;-0.88;46.80;95494.69;5050937;28;20495;-77
2022/01/23 08:41:49;;;;;;;21.02;11.48;;;;;;;-0.82;46.52;95491.56;5064463;28;20032;-79
2022/01/23 08:43:33;;;;;;;18.83;11.15;;;;;;;-0.83;46.22;95489.94;5049056;28;20063;-78
2022/01/23 08:45:59;;;;;;;29.45;14.77;;;;;;;-0.81;46.20;95492.38;5065238;28;20029;-79
2022/01/23 08:48:30;;;;;;;30.77;13.40;;;;;;;-0.78;45.96;95492.91;5062615;28;20025;-79
2022/01/23 08:50:55;;;;;;;24.02;13.48;;;;;;;-0.73;46.62;95487.34;5048300;28;20037;-79
2022/01/23 08:53:21;;;;;;;30.48;14.98;;;;;;;-0.64;46.03;95489.84;5045334;28;20040;-79
2022/01/23 08:55:49;;;;;;;27.73;13.32;;;;;;;-0.53;46.20;95495.66;5029718;28;20036;-78
2022/01/23 08:58:16;;;;;;;26.55;14.73;;;;;;;-0.42;46.51;95498.00;5021010;28;20097;-79
2022/01/23 09:00:42;;;;;;;17.27;10.55;;;;;;;-0.34;45.43;95500.59;5045237;28;20029;-79
2022/01/23 09:03:08;;;;;;;11.68;8.40;;;;;;;-0.36;45.07;95494.84;5046215;28;20036;-79
2022/01/23 09:05:33;;;;;;;16.35;10.15;;;;;;;-0.33;45.35;95491.97;5037486;28;20037;-79
2022/01/23 09:07:59;;;;;;;17.40;10.18;;;;;;;-0.33;45.66;95497.09;5036667;28;20603;-78
2022/01/23 09:10:29;;;;;;;18.38;9.40;;;;;;;-0.44;45.01;95500.69;5044850;28;20036;-78
2022/01/23 09:13:09;;;;;;;22.98;13.23;;;;;;;-0.45;45.90;95498.28;5053270;28;20085;-78
2022/01/23 09:15:34;;;;;;;25.98;15.00;;;;;;;-0.44;46.43;95500.69;5029459;28;20029;-78
2022/01/23 09:18:00;;;;;;;20.27;12.27;;;;;;;-0.41;45.58;95500.41;5043709;28;20063;-78
2022/01/23 09:20:25;;;;;;;21.30;10.88;;;;;;;-0.50;45.21;95491.03;5027268;28;20071;-78
2022/01/23 09:22:51;;;;;;;21.65;13.27;;;;;;;-0.54;45.87;95482.06;5044395;28;20035;-78
2022/01/23 09:25:16;;;;;;;21.48;11.38;;;;;;;-0.56;46.05;95493.41;5012784;28;20037;-78
2022/01/23 09:27:42;;;;;;;20.60;11.18;;;;;;;-0.57;45.61;95491.78;5062402;28;20419;-79
2022/01/23 09:30:17;;;;;;;24.73;14.65;;;;;;;-0.57;46.05;95484.13;5045286;28;20470;-78
2022/01/23 09:32:43;;;;;;;28.65;12.93;;;;;;;-0.49;46.31;95476.53;5037410;28;20039;-78
2022/01/23 09:35:09;;;;;;;22.25;13.15;;;;;;;-0.56;46.09;95478.06;5052812;28;20115;-78
2022/01/23 09:37:34;;;;;;;19.60;10.60;;;;;;;-0.56;46.34;95480.63;5028710;28;20028;-78
2022/01/23 09:40:00;;;;;;;12.73;8.63;;;;;;;-0.53;45.57;95470.09;5044193;28;20032;-78
2022/01/23 09:42:49;;;;;;;16.98;10.27;;;;;;;-0.55;46.10;95470.25;5027380;28;20033;-78
2022/01/23 09:45:14;;;;;;;12.98;9.48;;;;;;;-0.63;45.52;95471.00;5036593;28;20039;-78
2022/01/23 09:47:40;;;;;;;12.98;8.65;;;;;;;-0.69;45.64;95451.13;5043140;28;20452;-79
2022/01/23 09:50:06;;;;;;;20.63;11.45;;;;;;;-0.68;45.77;95468.06;5052487;28;20424;-79
2022/01/23 09:52:33;;;;;;;15.23;10.00;;;;;;;-0.65;45.76;95464.44;5063434;28;20104;-79
2022/01/23 09:55:06;;;;;;;21.20;11.65;;;;;;;-0.61;45.78;95458.88;5046952;28;20459;-79
2022/01/23 09:57:33;;;;;;;14.35;8.50;;;;;;;-0.59;45.40;95457.94;5043897;28;20033;-78
2022/01/23 09:59:59;;;;;;;29.05;11.15;;;;;;;-0.64;45.31;95458.38;5027246;28;20036;-79
2022/01/23 10:02:24;;;;;;;17.15;11.43;;;;;;;-0.64;45.51;95446.41;5035828;28;20064;-80
2022/01/23 10:04:51;;;;;;;26.40;13.70;;;;;;;-0.57;45.58;95445.81;5043732;28;20461;-79
2022/01/23 10:07:16;;;;;;;20.63;11.75;;;;;;;-0.57;45.23;95453.47;5044438;28;20032;-82
2022/01/23 10:09:42;;;;;;;31.73;18.00;;;;;;;-0.57;45.54;95440.72;5020673;28;20032;-78
2022/01/23 10:12:08;;;;;;;26.08;14.57;;;;;;;-0.54;45.35;95433.53;5070935;28;20033;-79
2022/01/23 10:14:35;;;;;;;15.88;9.23;;;;;;;-0.54;44.88;95427.63;5077871;28;20028;-79
2022/01/23 10:17:00;;;;;;;12.52;7.57;;;;;;;-0.68;45.07;95434.88;5038845;28;20468;-80
2022/01/23 10:19:29;;;;;;;19.52;11.88;;;;;;;-0.72;45.95;95420.00;5024427;28;20033;-79
2022/01/23 10:21:54;;;;;;;21.13;10.63;;;;;;;-0.80;47.65;95432.72;5038038;28;20040;-79
2022/01/23 10:24:20;;;;;;;18.98;10.57;;;;;;;-0.71;45.23;95413.94;5039168;28;20041;-81
2022/01/23 10:26:54;;;;;;;13.73;9.75;;;;;;;-0.63;45.96;95427.59;5029468;28;20025;-79
2022/01/23 10:29:21;;;;;;;15.82;8.23;;;;;;;-0.55;45.27;95408.94;5039232;28;20033;-80
2022/01/23 10:32:05;;;;;;;14.82;9.15;;;;;;;-0.62;46.23;95415.63;5030469;28;20043;-79
2022/01/23 10:34:54;;;;;;;15.27;9.25;;;;;;;-0.72;46.16;95410.59;5064524;28;20144;-78
2022/01/23 10:37:23;;;;;;;15.25;9.43;;;;;;;-0.66;46.33;95412.53;5046169;28;20028;-78
2022/01/23 10:39:48;;;;;;;22.83;11.18;;;;;;;-0.56;45.47;95404.00;5045222;28;20083;-79
2022/01/23 10:48:36;;;;;;;27.83;13.13;;;;;;;-0.50;45.66;95398.28;5048495;28;20055;-79
2022/01/23 10:51:30;;;;;;;26.80;12.90;;;;;;;-0.34;45.32;95393.28;5055025;28;20032;-79
2022/01/23 10:54:06;;;;;;;21.58;10.00;;;;;;;-0.31;45.11;95378.47;5048201;28;20416;-79
2022/01/23 10:56:39;;;;;;;12.57;8.10;;;;;;;-0.44;44.77;95374.72;5030938;28;20539;-79
2022/01/23 10:59:14;;;;;;;31.70;12.20;;;;;;;-0.50;45.17;95398.28;5038535;28;20041;-79
2022/01/23 11:01:39;;;;;;;29.60;11.77;;;;;;;-0.47;44.54;95386.03;5062947;28;20028;-78
2022/01/23 11:04:07;;;;;;;25.88;13.85;;;;;;;-0.34;43.76;95380.50;5012337;28;20048;-77
2022/01/23 11:06:32;;;;;;;22.10;13.40;;;;;;;-0.37;43.41;95368.03;5038092;28;20024;-79
2022/01/23 11:09:10;;;;;;;14.63;9.10;;;;;;;-0.46;44.13;95387.63;5027198;28;20082;-79
2022/01/23 11:11:43;;;;;;;37.80;17.45;;;;;;;-0.39;43.57;95377.59;5040068;28;20466;-80
2022/01/23 11:22:50;;;;;;;12.90;9.25;;;;;;;-0.69;44.82;95364.31;4918007;29;20067;-80
2022/01/23 11:25:33;;;;;;;35.70;13.13;;;;;;;-0.61;44.43;95377.16;4886407;29;20051;-82
2022/01/23 11:28:03;;;;;;;18.42;9.02;;;;;;;-0.54;43.87;95371.44;5351015;23;20057;-82
2022/01/23 11:30:54;;;;;;;32.75;13.48;;;;;;;-0.53;44.34;95367.94;4964599;28;20035;-81
2022/01/23 11:33:20;;;;;;;32.70;13.93;;;;;;;-0.65;44.42;95363.09;4949588;28;20507;-80
2022/01/23 11:35:46;;;;;;;22.23;9.70;;;;;;;-0.50;44.40;95376.09;4941466;28;20045;-81
2022/01/23 11:38:15;;;;;;;15.95;8.07;;;;;;;-0.44;43.86;95377.25;4934418;28;20038;-81
2022/01/23 11:54:51;;;;;;;17.10;9.50;;;;;;;-0.41;45.11;95351.41;4964689;28;20034;-79
2022/01/23 11:57:40;;;;;;;11.25;7.15;;;;;;;-0.42;44.95;95349.81;4934705;28;20487;-79
2022/01/23 12:00:12;;;;;;;19.95;11.52;;;;;;;-0.33;45.04;95354.00;4949419;28;20035;-81
2022/01/23 12:02:40;;;;;;;11.43;8.05;;;;;;;-0.33;44.88;95343.78;4946972;28;20046;-81
2022/01/23 12:05:17;;;;;;;17.33;10.95;;;;;;;-0.32;44.52;95340.28;4939891;28;20042;-80
2022/01/23 12:10:32;;;;;;;23.27;11.35;;;;;;;-0.34;44.76;95331.97;5002207;23;20411;-78
2022/01/23 12:16:27;;;;;;;18.98;11.77;;;;;;;-0.64;46.06;95335.78;4965343;28;20511;-80
2022/01/23 12:19:18;;;;;;;22.60;13.13;;;;;;;-0.57;45.53;95348.75;4922369;28;20039;-80
2022/01/23 12:21:50;;;;;;;22.95;12.48;;;;;;;-0.67;45.86;95329.22;4945159;28;20046;-80
2022/01/23 12:24:16;;;;;;;34.90;17.30;;;;;;;-0.72;46.11;95349.28;4965083;23;20047;-80
2022/01/23 12:26:42;;;;;;;54.50;24.83;;;;;;;-0.87;46.41;95343.13;4954670;29;20047;-79
2022/01/23 12:29:15;;;;;;;87.35;37.15;;;;;;;-0.98;47.47;95348.44;4905670;29;20039;-79
2022/01/23 12:31:41;;;;;;;38.72;15.40;;;;;;;-1.06;47.59;95348.41;4921782;29;20046;-78
2022/01/23 12:36:40;;;;;;;36.97;16.90;;;;;;;-1.01;47.80;95343.66;4972775;28;20074;-78
2022/01/23 12:39:08;;;;;;;18.73;9.27;;;;;;;-1.03;47.06;95345.53;4968364;28;20042;-79
2022/01/23 12:41:53;;;;;;;25.00;12.35;;;;;;;-1.06;47.62;95325.44;4961952;28;20126;-78
2022/01/23 12:44:22;;;;;;;21.83;9.85;;;;;;;-1.06;47.78;95339.00;4964155;28;20039;-78
2022/01/23 12:46:52;;;;;;;19.58;10.57;;;;;;;-1.06;48.43;95343.28;4947811;28;20043;-78
2022/01/23 12:49:22;;;;;;;23.50;11.68;;;;;;;-1.09;48.20;95339.28;5049071;23;20091;-79
2022/01/23 12:52:09;;;;;;;12.40;8.77;;;;;;;-1.05;48.67;95344.91;4953925;29;20093;-78
2022/01/23 12:54:47;;;;;;;30.50;14.18;;;;;;;-0.99;48.93;95346.84;4940179;29;20058;-79
2022/01/23 12:57:15;;;;;;;27.55;13.75;;;;;;;-0.96;48.28;95349.94;4955341;29;20503;-79
2022/01/23 12:59:42;;;;;;;20.55;10.10;;;;;;;-1.04;47.87;95333.75;4930410;29;20039;-79
2022/01/23 13:02:15;;;;;;;23.73;12.02;;;;;;;-1.15;48.62;95333.94;4954166;29;20137;-78
2022/01/23 13:04:43;;;;;;;12.75;7.93;;;;;;;-1.24;48.64;95345.84;4922880;29;20031;-78
2022/01/23 13:07:23;;;;;;;22.20;11.63;;;;;;;-1.28;48.52;95362.41;4921159;29;20117;-78
2022/01/23 13:09:53;;;;;;;56.47;24.10;;;;;;;-1.33;49.54;95362.81;4924321;29;20051;-78
2022/01/23 13:31:43;;;;;;;28.58;15.27;;;;;;;-1.45;49.34;95351.25;4936642;29;20043;-79
2022/01/23 13:34:42;;;;;;;26.67;13.60;;;;;;;-1.49;48.93;95347.38;4979200;23;20054;-80
2022/01/23 13:37:25;;;;;;;21.73;10.50;;;;;;;-1.55;49.01;95358.16;4961391;28;20047;-81
2022/01/23 13:39:54;;;;;;;;;;;;;;;-1.57;49.32;95362.59;4960488;28;20128;-78
2022/01/23 13:59:29;;;;;;;32.13;14.25;;;;;;;-1.19;49.08;95355.63;4943284;29;20729;-81
2022/01/23 14:02:15;;;;;;;23.90;12.40;;;;;;;-1.18;48.75;95354.66;5056016;23;20042;31
2022/01/23 14:04:51;;;;;;;25.02;12.57;;;;;;;-1.32;48.60;95351.66;4933984;29;20320;-84
2022/01/23 14:07:24;;;;;;;16.92;10.13;;;;;;;-1.52;49.21;95355.31;4936629;29;20028;-77
2022/01/23 14:09:49;;;;;;;;;;;;;;;-1.54;49.48;95347.00;4917430;29;20036;-79
2022/01/23 14:12:19;;;;;;;20.60;11.10;;;;;;;-1.53;49.34;95348.59;4933195;29;20031;-78
2022/01/23 14:14:53;;;;;;;19.50;9.25;;;;;;;-1.57;49.99;95337.91;4895809;29;20039;-78
2022/01/23 14:17:19;;;;;;;14.23;6.60;;;;;;;-1.59;49.44;95357.66;4916593;29;20044;-78
2022/01/23 14:20:00;;;;;;;13.80;7.15;;;;;;;-1.57;49.43;95354.94;4911067;29;20160;-81
2022/01/23 14:22:27;;;;;;;12.05;7.15;;;;;;;-1.66;49.39;95366.00;4937258;29;20047;-79
2022/01/23 14:24:53;;;;;;;13.25;6.78;;;;;;;-1.73;50.01;95357.31;4902765;29;20126;-78
2022/01/23 14:27:21;;;;;;;10.18;7.22;;;;;;;-1.73;49.54;95349.69;4914790;29;20122;-79
2022/01/23 14:29:51;;;;;;;14.20;8.48;;;;;;;-1.69;50.01;95356.09;4902841;29;20040;-79
2022/01/23 14:32:35;;;;;;;7.60;5.05;;;;;;;-1.70;50.25;95373.13;4917996;29;20040;-79
2022/01/23 14:35:10;;;;;;;14.52;7.22;;;;;;;-1.67;50.02;95375.41;4921432;29;20031;-79
2022/01/23 14:37:38;;;;;;;12.57;7.32;;;;;;;-1.68;49.68;95378.88;4903575;29;20035;-79
2022/01/23 14:40:23;;;;;;;14.75;7.97;;;;;;;-1.58;49.89;95381.41;4917718;29;20043;-79
2022/01/23 14:42:58;;;;;;;13.88;8.27;;;;;;;-1.55;49.71;95373.44;4917999;29;20071;-78
2022/01/23 14:45:23;;;;;;;10.80;7.82;;;;;;;-1.46;50.01;95376.91;4933111;29;20196;-79
2022/01/23 14:47:49;;;;;;;11.43;7.07;;;;;;;-1.54;50.06;95380.97;4900678;29;20558;-79
2022/01/23 14:50:18;;;;;;;17.77;10.20;;;;;;;-1.60;50.66;95383.28;4917381;29;20126;-79
2022/01/23 14:52:44;;;;;;;8.25;6.70;;;;;;;-1.62;50.30;95374.97;4936386;29;20051;-78
2022/01/23 14:55:09;;;;;;;18.85;10.10;;;;;;;-1.66;50.60;95387.19;4903396;29;20032;-79
2022/01/23 14:57:35;;;;;;;13.23;8.52;;;;;;;-1.67;50.13;95377.94;4917988;29;20617;-78
2022/01/23 15:00:05;;;;;;;13.75;8.07;;;;;;;-1.73;50.93;95390.47;4918231;29;20062;-77
2022/01/23 15:02:31;;;;;;;22.13;11.38;;;;;;;-1.65;51.03;95385.44;4920860;29;20044;-78
2022/01/23 15:05:02;;;;;;;25.95;13.30;;;;;;;-1.59;51.23;95400.19;4919943;29;20031;-78
2022/01/23 15:07:34;;;;;;;11.70;7.07;;;;;;;-1.52;50.19;95396.13;4890705;29;20040;-77
2022/01/23 15:10:00;;;;;;;13.27;9.15;;;;;;;-1.65;51.11;95395.66;4910319;29;20035;-75
2022/01/23 15:12:26;;;;;;;11.88;8.15;;;;;;;-1.58;50.96;95401.78;4901714;29;20090;-76
2022/01/23 15:14:52;;;;;;;16.15;10.57;;;;;;;-1.58;51.13;95410.25;4933812;29;20124;-76
2022/01/23 15:17:20;;;;;;;17.55;9.07;;;;;;;-1.67;51.42;95411.09;4934454;29;20030;-75
2022/01/23 15:19:48;;;;;;;16.10;9.23;;;;;;;-1.71;52.29;95408.97;4901343;29;20911;-75